Trine Charlotte — LMRY — position and weather

sailwx.info

Track history (hours):
 
Tides and Currents Weather Stations Pressure Air Temp Water Temp Dewpoint Dewpoint Depression Visibility Wind Speed Wind Dir Waves Ship Positions

Trine Charlotte

Last reported at 2014-Sep-21 01:33 UTC. Time now 2014-Sep-21 02:07 UTC.
Position N 58°52' E 006°09'.

Length 66 m; draft 4.6 m.

Type: . MMSI: 257233000.

Date/timePositionNaut miles runAvg speedWind from/ knotsBaromVisibWave heightAir tempDewpointWater temp
2014-Sep-21 01:33N 58°52' E 006°09'0 0.0
2014-Sep-21 00:33N 58°52' E 006°09'0 0.4
2014-Sep-20 23:32N 58°52' E 006°08'0 0.1
2014-Sep-20 22:32N 58°52' E 006°08'8 8.1
2014-Sep-20 21:33N 58°57' E 005°57'9 9.0
2014-Sep-20 20:33N 59°04' E 005°45'10 9.8
2014-Sep-20 19:33N 59°08' E 005°28'10 8.9
2014-Sep-20 18:23N 59°18' E 005°20'12 9.7
2014-Sep-20 17:08N 59°29' E 005°13'  
Track history (hours):
 
Tides and Currents Weather Stations Pressure Air Temp Water Temp Dewpoint Dewpoint Depression Visibility Wind Speed Wind Dir Waves Ship Positions

Trine Charlotte

Last reported at 2014-Sep-21 01:33 UTC. Time now 2014-Sep-21 02:07 UTC.
Position N 58°52' E 006°09'.

Length 66 m; draft 4.6 m.

Type: . MMSI: 257233000.

Date/timePositionNaut miles runAvg speedWind from/ knotsBaromVisibWave heightAir tempDewpointWater temp
2014-Sep-21 01:33N 58°52' E 006°09'0 0.0
2014-Sep-21 00:33N 58°52' E 006°09'0 0.4
2014-Sep-20 23:32N 58°52' E 006°08'0 0.1
2014-Sep-20 22:32N 58°52' E 006°08'8 8.1
2014-Sep-20 21:33N 58°57' E 005°57'9 9.0
2014-Sep-20 20:33N 59°04' E 005°45'10 9.8
2014-Sep-20 19:33N 59°08' E 005°28'10 8.9
2014-Sep-20 18:23N 59°18' E 005°20'12 9.7
2014-Sep-20 17:08N 59°29' E 005°13'  

Dump ship's entire track history